Time;durP1;ratioP1;P1;durP2;ratioP2;P2;SDS_P1;SDS_P2;PMS_P1;PMS_P2;Temp;Humidity;BMP_temperature;BMP_pressure;BME280_temperature;BME280_humidity;BME280_pressure;Samples;Min_cycle;Max_cycle;Signal;HPM_P1;HPM_P2
2022/11/04 00:02:08;;;;;;;13.93;11.13;;;;;;;11.82;73.81;100617.20;1679862;82;21286;-76
2022/11/04 00:04:35;;;;;;;12.17;10.87;;;;;;;11.80;73.76;100614.78;1691202;84;21933;-75
2022/11/04 00:08:22;;;;;;;15.50;12.07;;;;;;;11.81;73.80;100618.25;1684491;84;22634;-76
2022/11/04 00:09:31;;;;;;;22.13;18.20;;;;;;;11.84;73.82;100614.55;1691837;84;21420;-76
2022/11/04 00:14:46;;;;;;;17.63;14.83;;;;;;;11.84;73.78;100606.52;1691543;84;21286;-75
2022/11/04 00:17:24;;;;;;;20.20;15.60;;;;;;;11.87;73.89;100608.66;1688638;82;21679;-75
2022/11/04 00:33:50;;;;;;;15.40;12.13;;;;;;;11.76;73.84;100597.65;1701047;82;21400;-77
2022/11/04 00:36:17;;;;;;;14.77;12.17;;;;;;;11.73;73.94;100594.16;1694595;84;21423;-76
2022/11/04 00:38:44;;;;;;;13.27;11.40;;;;;;;11.75;73.94;100600.06;1691435;84;21879;-76
2022/11/04 00:41:28;;;;;;;13.03;11.33;;;;;;;11.73;73.99;100594.95;1683436;84;21817;-77
2022/11/04 00:44:00;;;;;;;12.80;11.07;;;;;;;11.76;74.04;100592.30;1697518;82;21346;-77
2022/11/04 00:46:31;;;;;;;14.00;11.30;;;;;;;11.78;74.02;100592.02;1693529;84;21082;-75
2022/11/04 00:48:59;;;;;;;13.03;11.30;;;;;;;11.81;74.03;100592.29;1667090;85;21551;-77
2022/11/04 00:51:26;;;;;;;12.77;10.53;;;;;;;11.79;73.99;100586.42;1646531;86;21846;-75
2022/11/04 00:53:52;;;;;;;14.00;11.17;;;;;;;11.83;74.00;100586.69;1694734;84;21301;-76
2022/11/04 00:56:19;;;;;;;12.70;10.17;;;;;;;11.87;74.10;100591.81;1701368;84;21244;-77
2022/11/04 00:58:46;;;;;;;11.43;10.13;;;;;;;11.83;74.01;100590.17;1702969;82;21400;-78
2022/11/04 01:01:16;;;;;;;12.00;10.10;;;;;;;11.77;74.00;100584.53;1701434;82;21233;-78
2022/11/04 01:03:44;;;;;;;11.27;10.07;;;;;;;11.80;74.02;100590.69;1692295;82;21226;-78
2022/11/04 01:06:11;;;;;;;12.73;10.30;;;;;;;11.83;73.97;100586.16;1702519;84;21887;-78
2022/11/04 01:08:39;;;;;;;12.37;10.57;;;;;;;11.87;73.87;100582.44;1704035;84;21857;-78
2022/11/04 01:11:07;;;;;;;14.10;10.03;;;;;;;11.90;73.83;100584.05;1685282;82;21204;-78
2022/11/04 01:13:34;;;;;;;11.33;9.77;;;;;;;11.94;73.80;100577.62;1699930;82;21211;-79
2022/11/04 01:16:02;;;;;;;11.23;9.77;;;;;;;11.97;73.72;100579.24;1666641;84;21283;-78
2022/11/04 01:18:29;;;;;;;12.43;10.17;;;;;;;11.96;73.66;100580.86;1691160;82;21192;-78
2022/11/04 01:21:00;;;;;;;11.90;10.17;;;;;;;11.95;73.61;100582.73;1687382;82;21389;-78
2022/11/04 01:23:27;;;;;;;11.43;9.65;;;;;;;11.92;73.57;100589.16;1678175;82;21328;-78
2022/11/04 01:25:54;;;;;;;13.53;9.93;;;;;;;11.89;73.56;100578.98;1686150;82;21068;-78
2022/11/04 01:28:20;;;;;;;10.93;9.57;;;;;;;11.88;73.55;100579.52;1680421;84;21216;-78
2022/11/04 01:30:47;;;;;;;11.53;9.97;;;;;;;11.86;73.60;100574.95;1683864;82;21282;-78
2022/11/04 01:33:13;;;;;;;11.53;9.93;;;;;;;11.90;73.65;100569.33;1681470;82;21274;-79
2022/11/04 01:35:40;;;;;;;14.83;10.83;;;;;;;11.94;73.69;100571.77;1703104;84;21969;-79
2022/11/04 01:38:06;;;;;;;11.23;9.97;;;;;;;12.00;73.66;100572.56;1685665;84;21387;-79
2022/11/04 01:40:38;;;;;;;13.07;10.13;;;;;;;12.02;73.74;100568.30;1701912;84;21403;-78
2022/11/04 01:43:13;;;;;;;11.50;10.27;;;;;;;12.06;73.70;100568.02;1694043;84;21248;-78
2022/11/04 01:45:40;;;;;;;12.93;10.13;;;;;;;12.06;73.72;100567.48;1699234;82;21164;-77
2022/11/04 01:48:21;;;;;;;14.03;10.53;;;;;;;12.04;73.83;100568.81;1707740;84;21200;-77
2022/11/04 01:50:48;;;;;;;13.53;9.90;;;;;;;12.03;73.98;100569.36;1692101;84;21295;-77
2022/11/04 01:53:24;;;;;;;13.60;10.53;;;;;;;12.08;74.06;100568.57;1705291;84;21253;-78
2022/11/04 01:55:55;;;;;;;15.03;9.73;;;;;;;12.02;74.04;100571.77;1703166;84;21240;-78
2022/11/04 01:58:25;;;;;;;14.38;9.80;;;;;;;11.92;74.07;100568.55;1708533;84;21317;-78
2022/11/04 02:00:52;;;;;;;13.87;9.77;;;;;;;11.86;74.14;100571.47;1704567;83;21027;-78
2022/11/04 02:03:33;;;;;;;11.97;9.20;;;;;;;11.81;74.25;100575.44;1697004;82;21756;-78
2022/11/04 02:06:00;;;;;;;11.57;8.58;;;;;;;11.74;74.33;100578.36;1690963;84;21346;-78
2022/11/04 02:08:27;;;;;;;11.07;8.77;;;;;;;11.84;74.03;100578.92;1660788;85;21652;-78
2022/11/04 02:10:59;;;;;;;13.60;9.73;;;;;;;11.85;73.94;100580.58;1705325;82;21375;-78
2022/11/04 02:13:29;;;;;;;12.77;9.57;;;;;;;11.83;73.86;100577.33;1709631;84;21206;-77
2022/11/04 02:16:37;;;;;;;11.87;9.03;;;;;;;11.80;73.85;100575.97;1683238;84;21338;-78
2022/11/04 02:19:32;;;;;;;15.03;9.47;;;;;;;11.79;73.92;100581.06;1707171;83;21072;-79
2022/11/04 02:22:30;;;;;;;14.03;9.00;;;;;;;11.75;73.94;100578.66;1682866;84;21261;-78
2022/11/04 02:25:38;;;;;;;12.33;8.60;;;;;;;11.77;74.04;100577.84;1705161;84;21251;-76
2022/11/04 02:28:47;;;;;;;13.30;9.10;;;;;;;11.78;74.04;100585.33;1685534;85;21129;-76
2022/11/04 02:31:35;;;;;;;16.13;10.40;;;;;;;11.80;74.08;100584.00;1711114;83;21208;-77
2022/11/04 02:34:10;;;;;;;17.60;11.17;;;;;;;11.82;74.01;100580.54;1657987;85;21791;-76
2022/11/04 02:36:49;;;;;;;17.93;10.90;;;;;;;11.83;73.97;100578.12;1663599;86;21554;-76
2022/11/04 02:39:42;;;;;;;15.27;9.80;;;;;;;11.85;73.92;100578.70;1704393;84;21259;-77
2022/11/04 02:42:40;;;;;;;14.83;9.20;;;;;;;11.87;73.91;100573.88;1692469;83;21116;-77
2022/11/04 02:45:24;;;;;;;14.53;8.63;;;;;;;11.84;73.77;100574.41;1677046;84;21321;-77
2022/11/04 02:48:02;;;;;;;13.77;8.87;;;;;;;11.82;73.69;100576.53;1704280;84;21266;-77
2022/11/04 02:50:40;;;;;;;14.17;9.10;;;;;;;11.78;73.60;100574.62;1700962;84;21366;-78
2022/11/04 02:53:24;;;;;;;14.13;8.60;;;;;;;11.78;73.63;100570.61;1704899;84;21605;-77
2022/11/04 02:55:54;;;;;;;11.77;8.27;;;;;;;11.72;73.47;100565.27;1701025;84;21180;-77
2022/11/04 02:58:31;;;;;;;11.97;8.17;;;;;;;11.65;73.43;100561.24;1705157;84;21801;-77
2022/11/04 03:00:58;;;;;;;9.17;7.23;;;;;;;11.63;73.51;100564.70;1689418;84;21303;-77
2022/11/04 03:03:28;;;;;;;10.60;7.97;;;;;;;11.66;73.58;100568.19;1703025;84;21621;-78
2022/11/04 03:05:56;;;;;;;13.27;7.77;;;;;;;11.67;73.54;100559.89;1704612;84;21303;-78
2022/11/04 03:08:32;;;;;;;10.47;7.23;;;;;;;11.45;74.06;100561.45;1691894;82;21392;-77
2022/11/04 03:11:03;;;;;;;12.43;8.00;;;;;;;11.42;74.22;100555.82;1700920;82;21772;-77
2022/11/04 03:13:36;;;;;;;;;;;;;;;11.38;74.35;100551.50;1704280;84;21425;-77
2022/11/04 03:16:08;;;;;;;13.80;8.37;;;;;;;11.38;74.37;100551.50;1704144;84;21835;-77
2022/11/04 03:18:51;;;;;;;12.87;8.00;;;;;;;11.39;74.48;100555.80;1674430;83;21372;-77
2022/11/04 03:21:19;;;;;;;12.77;7.30;;;;;;;11.41;74.49;100554.98;1709558;84;21188;-76
2022/11/04 03:23:45;;;;;;;12.50;7.87;;;;;;;11.35;74.41;100562.75;1697941;82;21237;-77
2022/11/04 03:26:24;;;;;;;12.00;7.87;;;;;;;11.32;74.48;100560.59;1710068;83;21555;-76
2022/11/04 03:29:36;;;;;;;12.47;8.27;;;;;;;11.33;74.59;100557.38;1704674;84;21393;-77
2022/11/04 03:32:23;;;;;;;12.75;7.90;;;;;;;11.33;74.65;100560.06;1709420;82;21404;-77
2022/11/04 03:34:50;;;;;;;16.83;8.70;;;;;;;11.38;74.74;100561.40;1707295;84;21103;-77
2022/11/04 03:37:17;;;;;;;13.30;7.80;;;;;;;11.36;74.71;100563.02;1706361;82;21433;-77
2022/11/04 03:39:43;;;;;;;12.23;7.90;;;;;;;11.35;74.69;100560.08;1708755;82;21790;-77
2022/11/04 03:42:20;;;;;;;13.73;8.27;;;;;;;11.38;74.65;100562.73;1705575;82;21240;-76
2022/11/04 03:44:57;;;;;;;11.73;7.40;;;;;;;11.57;74.21;100565.21;1704592;82;21605;-76
2022/11/04 03:47:26;;;;;;;11.07;7.47;;;;;;;11.57;73.81;100577.25;1706223;84;21656;-77
2022/11/04 03:50:13;;;;;;;11.70;7.50;;;;;;;11.55;73.79;100577.23;1678845;83;21314;-77
2022/11/04 03:52:40;;;;;;;10.90;7.67;;;;;;;11.54;73.78;100575.09;1702831;82;21282;-76
2022/11/04 03:55:08;;;;;;;10.70;7.23;;;;;;;11.51;73.64;100573.75;1709702;83;21691;-78
2022/11/04 03:57:47;;;;;;;11.90;7.40;;;;;;;11.47;73.60;100572.67;1707601;82;21272;-78
2022/11/04 04:00:21;;;;;;;13.73;7.37;;;;;;;11.39;73.58;100575.86;1710393;82;21172;-76
2022/11/04 04:03:09;;;;;;;11.07;7.00;;;;;;;11.34;73.71;100567.80;1705899;82;21148;-76
2022/11/04 04:06:04;;;;;;;13.03;8.17;;;;;;;11.34;73.67;100569.14;1708858;82;21305;-76
2022/11/04 04:08:38;;;;;;;12.07;7.87;;;;;;;11.31;73.69;100565.66;1710119;84;21851;-76
2022/11/04 04:11:28;;;;;;;12.23;7.97;;;;;;;11.33;73.77;100561.39;1708809;82;21214;-77
2022/11/04 04:15:00;;;;;;;15.10;8.40;;;;;;;11.16;74.29;100559.72;1683318;84;21611;-77
2022/11/04 04:16:50;;;;;;;14.03;9.10;;;;;;;11.15;74.50;100558.63;1680578;82;21207;-78
2022/11/04 04:19:19;;;;;;;24.37;12.90;;;;;;;11.03;74.76;100566.88;1707713;82;21899;-77
2022/11/04 04:21:52;;;;;;;21.27;12.13;;;;;;;11.11;74.66;100567.70;1667074;84;21810;-77
2022/11/04 04:27:48;;;;;;;18.87;10.83;;;;;;;10.95;75.12;100569.48;1645450;84;21024;-77
2022/11/04 04:29:42;;;;;;;16.45;10.15;;;;;;;10.95;75.17;100570.02;1665401;84;21150;-78
2022/11/04 04:32:10;;;;;;;17.48;9.70;;;;;;;10.96;75.09;100573.79;1662623;84;21074;-78
2022/11/04 04:34:37;;;;;;;12.77;8.83;;;;;;;11.00;74.86;100569.53;1657984;84;21338;-77
2022/11/04 04:37:17;;;;;;;14.30;8.73;;;;;;;11.01;74.86;100577.81;1704474;84;21449;-78
2022/11/04 04:45:35;;;;;;;11.20;7.67;;;;;;;11.00;74.86;100580.75;1704001;84;21412;-76
2022/11/04 04:48:01;;;;;;;10.47;6.80;;;;;;;10.94;74.93;100589.27;1695260;83;21322;-78
2022/11/04 04:50:36;;;;;;;12.00;7.37;;;;;;;10.94;74.99;100590.60;1695672;84;21091;-76
2022/11/04 04:53:03;;;;;;;11.87;7.77;;;;;;;10.96;75.04;100594.38;1703520;82;21203;-77
2022/11/04 04:55:33;;;;;;;10.97;7.47;;;;;;;10.96;75.02;100593.83;1702761;84;21250;-76
2022/11/04 04:57:59;;;;;;;10.17;7.40;;;;;;;10.98;75.07;100597.56;1703509;82;21770;-76
2022/11/04 05:00:28;;;;;;;12.47;8.03;;;;;;;10.98;74.99;100600.23;1703845;82;22241;-79
2022/11/04 05:02:54;;;;;;;12.40;7.90;;;;;;;10.97;74.98;100598.11;1697504;82;21911;-77
2022/11/04 05:05:22;;;;;;;13.73;8.43;;;;;;;10.97;74.91;100597.30;1702858;83;21362;-77
2022/11/04 05:07:49;;;;;;;12.93;7.53;;;;;;;10.97;74.93;100602.11;1698323;82;21275;-77
2022/11/04 05:10:16;;;;;;;10.37;7.37;;;;;;;10.99;74.91;100595.99;1688003;82;21357;-76
2022/11/04 05:15:30;;;;;;;11.53;7.50;;;;;;;10.95;74.76;100593.54;1703133;82;21251;-78
2022/11/04 05:18:01;;;;;;;11.17;7.37;;;;;;;10.97;74.83;100594.63;1702243;82;21272;-78
2022/11/04 05:20:29;;;;;;;11.40;7.80;;;;;;;10.97;74.75;100601.31;1699665;82;21266;-79
2022/11/04 05:22:57;;;;;;;10.50;7.77;;;;;;;10.96;74.79;100601.05;1702403;84;21335;-79
2022/11/04 05:25:24;;;;;;;14.93;8.63;;;;;;;11.01;74.85;100598.39;1695847;82;21194;-78
2022/11/04 05:27:50;;;;;;;10.67;7.77;;;;;;;11.08;74.84;100603.50;1703986;84;21716;-78
2022/11/04 05:30:17;;;;;;;12.83;8.27;;;;;;;11.11;74.80;100604.33;1693076;82;21931;-78
2022/11/04 05:32:44;;;;;;;13.13;8.40;;;;;;;11.12;74.71;100601.92;1698988;82;21273;-77
2022/11/04 05:35:11;;;;;;;14.30;8.13;;;;;;;11.14;74.66;100607.83;1704277;84;21492;-78
2022/11/04 05:37:37;;;;;;;13.20;8.13;;;;;;;11.12;74.53;100608.60;1702958;82;21855;-77
2022/11/04 05:40:06;;;;;;;13.37;7.67;;;;;;;11.12;74.54;100607.27;1701238;82;21979;-77
2022/11/04 05:42:35;;;;;;;12.83;7.13;;;;;;;11.15;74.50;100606.75;1700954;83;21355;-78
2022/11/04 05:45:03;;;;;;;12.90;6.83;;;;;;;11.17;74.43;100613.98;1701815;84;21342;-77
2022/11/04 05:47:29;;;;;;;12.60;7.53;;;;;;;11.18;74.42;100607.57;1702591;82;21309;-77
2022/11/04 05:49:56;;;;;;;10.80;6.90;;;;;;;11.23;74.46;100605.73;1703914;84;21228;-77
2022/11/04 05:52:23;;;;;;;12.07;7.37;;;;;;;11.25;74.24;100607.63;1694872;84;21328;-78
2022/11/04 05:54:51;;;;;;;11.93;7.50;;;;;;;11.23;74.10;100615.63;1703673;82;21125;-79
2022/11/04 05:57:18;;;;;;;16.13;8.27;;;;;;;11.21;74.03;100615.07;1701911;83;21464;-82
2022/11/04 05:59:46;;;;;;;8.67;6.90;;;;;;;11.19;73.97;100623.37;1701271;84;21283;-78
2022/11/04 06:02:12;;;;;;;11.57;7.80;;;;;;;11.20;74.02;100630.85;1694322;82;21152;-78
2022/11/04 06:04:39;;;;;;;10.77;7.57;;;;;;;11.19;73.97;100634.59;1705311;83;21216;-78
2022/11/04 06:07:06;;;;;;;12.60;7.27;;;;;;;11.19;73.96;100639.41;1700171;82;21285;-77
2022/11/04 06:09:40;;;;;;;11.80;7.23;;;;;;;11.18;73.99;100639.11;1703451;82;21149;-78
2022/11/04 06:12:16;;;;;;;12.60;8.07;;;;;;;11.17;73.93;100636.17;1701654;84;21331;-78
2022/11/04 06:14:44;;;;;;;13.63;7.57;;;;;;;11.15;73.89;100640.16;1698849;82;21136;-78
2022/11/04 06:17:17;;;;;;;9.57;6.37;;;;;;;11.14;73.88;100643.91;1674793;82;21257;-78
2022/11/04 06:19:44;;;;;;;9.77;7.30;;;;;;;11.13;73.91;100644.98;1700963;82;21329;-78
2022/11/04 06:22:12;;;;;;;11.90;7.40;;;;;;;11.12;73.91;100650.03;1697690;84;21297;-78
2022/11/04 06:24:39;;;;;;;13.90;7.67;;;;;;;11.12;73.96;100648.70;1705051;84;21321;-77
2022/11/04 06:27:07;;;;;;;11.70;7.40;;;;;;;11.15;74.04;100646.31;1698909;82;21192;-78
2022/11/04 06:29:35;;;;;;;12.70;8.63;;;;;;;11.21;74.06;100645.28;1688734;82;21241;-78
2022/11/04 06:32:02;;;;;;;9.83;7.43;;;;;;;11.25;74.06;100640.22;1701145;84;21282;-79
2022/11/04 06:34:30;;;;;;;13.60;7.90;;;;;;;11.27;73.87;100635.43;1700023;82;21034;-78
2022/11/04 06:36:56;;;;;;;13.60;8.20;;;;;;;11.28;73.76;100635.69;1700575;84;21143;-76
2022/11/04 06:39:23;;;;;;;14.00;8.60;;;;;;;11.28;73.71;100636.49;1703533;84;21776;-77
2022/11/04 06:41:49;;;;;;;10.80;7.97;;;;;;;11.31;73.62;100643.20;1704202;84;21131;-77
2022/11/04 06:44:16;;;;;;;13.13;8.87;;;;;;;11.33;73.40;100647.77;1702141;82;21392;-78
2022/11/04 06:46:43;;;;;;;13.30;8.93;;;;;;;11.30;73.31;100644.27;1685132;84;21306;-78
2022/11/04 06:49:14;;;;;;;11.00;8.60;;;;;;;11.35;73.37;100641.64;1699181;84;21850;-78
2022/11/04 06:51:41;;;;;;;;;;;;;;;11.36;73.17;100642.44;1701354;82;21299;-79
2022/11/04 06:54:08;;;;;;;12.97;7.83;;;;;;;11.34;73.17;100650.70;1685382;82;20493;-78
2022/11/04 06:56:37;;;;;;;14.83;8.80;;;;;;;11.35;73.17;100652.84;1688805;84;21300;-79
2022/11/04 06:59:03;;;;;;;14.10;8.83;;;;;;;11.30;73.00;100649.62;1704360;82;21214;-78
2022/11/04 07:01:33;;;;;;;16.97;9.00;;;;;;;11.28;72.98;100645.85;1704085;84;21190;-78
2022/11/04 07:04:00;;;;;;;12.83;9.10;;;;;;;11.32;73.09;100648.01;1680787;84;21321;-79
2022/11/04 07:06:32;;;;;;;17.33;10.07;;;;;;;11.37;73.06;100640.03;1705072;84;21263;-79
2022/11/04 07:08:58;;;;;;;11.67;8.90;;;;;;;11.44;73.09;100641.93;1694118;82;21651;-79
2022/11/04 07:11:32;;;;;;;16.03;10.13;;;;;;;11.53;73.11;100642.25;1705390;84;21225;-78
2022/11/04 07:13:59;;;;;;;14.23;9.93;;;;;;;11.60;73.07;100638.26;1703283;82;21352;-79
2022/11/04 07:16:26;;;;;;;12.73;10.10;;;;;;;11.68;73.04;100640.45;1704792;84;21815;-79
2022/11/04 07:18:54;;;;;;;17.73;10.87;;;;;;;11.72;72.69;100635.38;1705357;84;21328;-77
2022/11/04 07:21:21;;;;;;;20.20;11.37;;;;;;;11.76;72.63;100632.44;1705843;84;21341;-77
2022/11/04 07:23:47;;;;;;;28.67;12.03;;;;;;;11.81;72.45;100636.98;1704428;82;21398;-79
2022/11/04 07:26:13;;;;;;;20.77;11.33;;;;;;;11.85;72.39;100640.27;1705515;84;21182;-78
2022/11/04 07:28:40;;;;;;;26.50;10.43;;;;;;;11.90;72.23;100636.78;1657608;84;21078;-79
2022/11/04 07:31:10;;;;;;;27.43;12.40;;;;;;;11.94;72.08;100636.02;1675424;85;21212;-79
2022/11/04 07:33:37;;;;;;;20.57;11.03;;;;;;;11.99;71.97;100639.22;1678614;82;21309;-78
2022/11/04 07:36:06;;;;;;;17.47;11.10;;;;;;;12.02;71.81;100634.68;1704880;82;21077;-79
2022/11/04 07:38:35;;;;;;;18.73;11.93;;;;;;;12.07;71.71;100638.69;1695718;82;21830;-79
2022/11/04 07:41:02;;;;;;;17.00;11.03;;;;;;;12.12;71.63;100644.07;1693158;82;21241;-78
2022/11/04 07:43:30;;;;;;;19.87;11.03;;;;;;;12.16;71.44;100641.66;1710386;84;21408;-79
2022/11/04 07:46:07;;;;;;;24.43;11.47;;;;;;;12.20;71.34;100632.02;1676123;85;21650;-78
2022/11/04 07:48:36;;;;;;;19.57;10.70;;;;;;;12.24;71.22;100634.97;1665636;86;21366;-78
2022/11/04 07:51:03;;;;;;;14.97;9.73;;;;;;;12.28;70.91;100632.86;1705224;84;21284;-78
2022/11/04 07:53:31;;;;;;;13.37;9.77;;;;;;;12.25;70.48;100634.72;1705325;83;21849;-78
2022/11/04 07:55:58;;;;;;;14.90;10.00;;;;;;;12.22;70.39;100628.56;1705352;84;21317;-78
2022/11/04 07:58:28;;;;;;;11.90;9.10;;;;;;;12.22;70.25;100631.23;1703926;84;21325;-80
2022/11/04 08:01:00;;;;;;;12.70;9.85;;;;;;;12.23;70.12;100627.48;1702500;84;28454;-79
2022/11/04 08:03:27;;;;;;;12.70;9.03;;;;;;;12.22;70.05;100635.79;1704107;82;21571;-79
2022/11/04 08:05:57;;;;;;;14.23;10.00;;;;;;;12.19;70.02;100629.89;1705344;84;21074;-79
2022/11/04 08:08:26;;;;;;;12.85;9.60;;;;;;;12.18;69.95;100630.97;1705105;84;21941;-80
2022/11/04 08:10:59;;;;;;;13.07;10.10;;;;;;;12.20;70.05;100629.34;1700657;82;21579;-79
2022/11/04 08:13:28;;;;;;;10.50;8.77;;;;;;;12.21;70.08;100624.28;1705758;84;21281;-78
2022/11/04 08:16:12;;;;;;;14.27;9.33;;;;;;;12.21;69.66;100629.64;1704417;84;21780;-78
2022/11/04 08:18:42;;;;;;;12.67;8.97;;;;;;;12.22;69.88;100626.42;1704570;83;21303;-79
2022/11/04 08:21:08;;;;;;;12.83;9.77;;;;;;;12.24;69.83;100634.47;1702723;84;21310;-79
2022/11/04 08:23:37;;;;;;;13.87;9.90;;;;;;;12.26;69.64;100620.25;1704238;82;21384;-78
2022/11/04 08:26:15;;;;;;;11.87;10.07;;;;;;;12.30;69.36;100621.86;1703705;82;21946;-77
2022/11/04 08:28:43;;;;;;;15.10;10.60;;;;;;;12.36;69.45;100620.80;1705278;84;21298;-77
2022/11/04 08:31:23;;;;;;;12.23;9.80;;;;;;;12.51;69.32;100626.17;1704295;82;21507;-78
2022/11/04 08:33:50;;;;;;;14.03;9.03;;;;;;;12.61;68.89;100628.05;1705391;84;21359;-79
2022/11/04 08:36:29;;;;;;;13.23;9.40;;;;;;;12.58;68.14;100633.41;1705685;84;21291;-77
2022/11/04 08:38:58;;;;;;;13.20;8.93;;;;;;;12.53;67.90;100633.92;1701808;82;21800;-79
2022/11/04 08:41:28;;;;;;;13.03;9.70;;;;;;;12.47;67.56;100634.99;1703639;82;21212;-78
2022/11/04 08:43:56;;;;;;;12.03;9.20;;;;;;;12.38;67.88;100632.86;1701519;82;21397;-80
2022/11/04 08:46:22;;;;;;;13.07;9.60;;;;;;;12.36;68.12;100625.61;1683022;82;21389;-79
2022/11/04 08:48:49;;;;;;;12.87;9.90;;;;;;;12.42;68.37;100630.45;1676874;85;21282;-78
2022/11/04 08:51:19;;;;;;;14.23;9.87;;;;;;;12.54;68.48;100631.00;1692312;82;21795;-78
2022/11/04 08:53:47;;;;;;;12.53;9.40;;;;;;;12.63;68.22;100626.69;1705656;84;21391;-79
2022/11/04 08:56:21;;;;;;;12.10;9.63;;;;;;;12.73;68.20;100627.22;1704522;82;21126;-78
2022/11/04 08:58:50;;;;;;;15.60;10.47;;;;;;;12.75;67.65;100633.13;1704710;83;21482;-79
2022/11/04 09:01:17;;;;;;;12.23;9.20;;;;;;;12.77;67.73;100630.19;1705391;84;21356;-79
2022/11/04 09:03:44;;;;;;;11.60;8.67;;;;;;;12.85;67.87;100634.45;1703620;82;21442;-79
2022/11/04 09:06:15;;;;;;;11.77;8.97;;;;;;;12.89;67.26;100629.35;1704962;83;21364;-80
2022/11/04 09:08:43;;;;;;;9.37;7.40;;;;;;;12.86;66.14;100621.84;1705540;84;21454;-79
2022/11/04 09:11:15;;;;;;;9.57;7.17;;;;;;;12.86;66.14;100621.84;1703250;82;21444;-78
2022/11/04 09:13:42;;;;;;;13.87;8.50;;;;;;;12.85;66.41;100623.73;1697732;84;21719;-79
2022/11/04 09:16:11;;;;;;;10.17;8.17;;;;;;;12.74;66.74;100626.17;1676277;85;21496;-79
2022/11/04 09:18:41;;;;;;;9.65;7.85;;;;;;;12.74;66.74;100626.17;1694170;82;21490;-78
2022/11/04 09:21:09;;;;;;;10.07;7.83;;;;;;;12.69;66.51;100620.80;1704166;82;21571;-80
2022/11/04 09:23:36;;;;;;;13.47;9.03;;;;;;;12.67;66.33;100625.09;1704252;82;22040;-79
2022/11/04 09:26:11;;;;;;;11.77;8.53;;;;;;;12.67;66.33;100625.09;1704675;83;21912;-79
2022/11/04 09:28:39;;;;;;;11.67;8.57;;;;;;;12.39;66.45;100624.28;1704774;84;21350;-79
2022/11/04 09:31:14;;;;;;;12.43;8.50;;;;;;;12.39;66.45;100624.28;1704751;82;21440;-78
2022/11/04 09:33:42;;;;;;;12.03;9.10;;;;;;;12.28;66.67;100620.80;1704792;83;21270;-78
2022/11/04 09:36:09;;;;;;;11.17;9.40;;;;;;;12.21;66.81;100621.60;1705300;84;21312;-79
2022/11/04 09:38:40;;;;;;;14.53;10.07;;;;;;;12.15;67.09;100633.37;1702406;82;21758;-79
2022/11/04 09:41:32;;;;;;;14.73;9.57;;;;;;;12.13;67.23;100629.61;1705235;84;21214;-79
2022/11/04 09:44:15;;;;;;;20.93;10.73;;;;;;;12.14;67.49;100625.05;1694228;84;21306;-78
2022/11/04 09:46:42;;;;;;;12.07;9.30;;;;;;;12.17;67.63;100619.16;1683543;84;21369;-79
2022/11/04 09:49:10;;;;;;;13.27;9.80;;;;;;;12.26;67.68;100624.27;1679611;84;21337;-79
2022/11/04 09:51:40;;;;;;;12.73;9.57;;;;;;;12.18;67.35;100634.18;1705305;84;21776;-80
2022/11/04 09:54:21;;;;;;;11.27;8.80;;;;;;;12.08;67.30;100625.59;1705062;84;21317;-78
2022/11/04 09:56:50;;;;;;;13.57;8.90;;;;;;;12.05;67.30;100623.45;1705183;84;21702;-77
2022/11/04 09:59:24;;;;;;;10.70;8.83;;;;;;;12.00;67.16;100619.95;1701878;82;21281;-79
2022/11/04 10:02:11;;;;;;;11.40;8.90;;;;;;;11.94;67.33;100617.27;1704945;82;21285;-80
2022/11/04 10:04:54;;;;;;;13.27;8.87;;;;;;;11.95;67.53;100616.20;1704119;82;21297;-78
2022/11/04 10:07:46;;;;;;;11.20;9.10;;;;;;;12.03;67.83;100616.20;1689932;84;21442;-79
2022/11/04 10:10:44;;;;;;;11.43;9.07;;;;;;;12.07;67.70;100614.59;1705371;84;21880;-80
2022/11/04 10:13:22;;;;;;;9.93;8.27;;;;;;;12.13;67.63;100615.42;1705357;84;21511;-79
2022/11/04 10:16:20;;;;;;;11.17;7.87;;;;;;;12.13;67.19;100621.57;1705138;84;21252;-81
2022/11/04 10:18:53;;;;;;;10.40;7.67;;;;;;;12.14;67.11;100619.69;1705345;84;21886;-79
2022/11/04 10:22:04;;;;;;;10.13;8.07;;;;;;;12.08;66.97;100630.15;1705390;84;21268;-77
2022/11/04 10:24:47;;;;;;;10.27;7.70;;;;;;;11.99;66.95;100619.14;1705438;84;21250;-77
2022/11/04 10:27:17;;;;;;;10.87;8.27;;;;;;;11.92;67.17;100626.09;1705339;84;21568;-79
2022/11/04 10:29:55;;;;;;;9.07;7.53;;;;;;;11.93;67.45;100615.64;1705153;84;21257;-80
2022/11/04 10:32:57;;;;;;;11.63;8.63;;;;;;;11.94;67.58;100617.27;1705455;83;21662;-78
2022/11/04 10:35:40;;;;;;;12.30;8.53;;;;;;;11.93;67.67;100612.17;1705146;83;21634;-78
2022/11/04 10:38:18;;;;;;;9.27;7.50;;;;;;;11.97;67.81;100610.56;1705196;84;21093;-78
2022/11/04 10:40:48;;;;;;;14.93;8.67;;;;;;;12.06;67.77;100606.30;1705208;84;21258;-79
2022/11/04 10:43:33;;;;;;;9.83;7.73;;;;;;;12.08;67.64;100606.86;1705354;84;21206;-79
2022/11/04 10:46:27;;;;;;;9.00;6.90;;;;;;;12.13;67.48;100600.69;1704994;84;21337;-80
2022/11/04 10:49:09;;;;;;;9.57;7.43;;;;;;;12.15;67.17;100598.02;1705136;83;21469;-79
2022/11/04 10:51:35;;;;;;;12.35;7.70;;;;;;;12.17;67.01;100603.93;1704851;84;21137;-80
2022/11/04 10:54:04;;;;;;;9.43;6.33;;;;;;;12.19;66.84;100600.97;1705409;84;21872;-77
2022/11/04 10:56:39;;;;;;;9.90;7.27;;;;;;;12.26;66.84;100598.83;1705103;84;21291;-80
2022/11/04 10:59:29;;;;;;;9.23;6.57;;;;;;;12.30;66.57;100594.54;1705428;84;21253;-81
2022/11/04 11:01:57;;;;;;;11.37;7.40;;;;;;;12.30;66.19;100585.16;1705401;83;22049;-80
2022/11/04 11:04:35;;;;;;;11.53;7.63;;;;;;;12.27;66.12;100587.58;1705219;84;21258;-80
2022/11/04 11:07:05;;;;;;;10.67;6.87;;;;;;;12.29;66.13;100591.60;1705443;84;21179;-81
2022/11/04 11:09:42;;;;;;;10.00;6.83;;;;;;;12.29;65.90;100590.27;1705093;84;21766;-78
2022/11/04 11:12:17;;;;;;;9.83;6.57;;;;;;;12.33;65.97;100582.49;1704487;84;21307;-79
2022/11/04 11:14:46;;;;;;;9.03;7.07;;;;;;;12.39;66.00;100582.23;1705173;84;21629;-77
2022/11/04 11:17:35;;;;;;;10.47;7.10;;;;;;;12.43;65.94;100575.25;1705568;84;21244;-77
2022/11/04 11:20:20;;;;;;;10.77;6.93;;;;;;;12.48;66.02;100577.14;1703579;84;21376;-77
2022/11/04 11:22:50;;;;;;;9.47;6.17;;;;;;;12.56;65.74;100571.23;1675810;82;21427;-77
2022/11/04 11:25:25;;;;;;;12.30;7.27;;;;;;;12.57;65.67;100574.20;1699463;82;21198;-77
2022/11/04 11:28:00;;;;;;;13.97;8.10;;;;;;;12.58;65.38;100566.41;1703041;82;21299;-77
2022/11/04 11:30:49;;;;;;;11.60;7.93;;;;;;;12.55;65.11;100566.16;1705050;84;21812;-77
2022/11/04 11:33:26;;;;;;;8.90;6.97;;;;;;;12.55;65.12;100566.16;1704389;82;21259;-77
2022/11/04 11:36:14;;;;;;;7.73;5.90;;;;;;;12.56;65.10;100568.55;1705039;84;21314;-78
2022/11/04 11:39:00;;;;;;;9.50;7.10;;;;;;;12.64;65.31;100569.91;1704174;82;21417;-77
2022/11/04 11:41:30;;;;;;;9.97;6.17;;;;;;;12.78;65.14;100572.28;1700960;82;21304;-76
2022/11/04 11:44:19;;;;;;;10.53;6.97;;;;;;;12.85;64.86;100568.78;1705305;84;21306;-76
2022/11/04 11:46:56;;;;;;;9.97;6.90;;;;;;;12.85;64.86;100568.78;1704298;82;21305;-76
2022/11/04 11:49:33;;;;;;;8.67;6.83;;;;;;;12.81;64.28;100573.08;1703426;84;21498;-75
2022/11/04 11:52:32;;;;;;;8.83;6.07;;;;;;;12.72;64.11;100566.66;1703345;84;21253;-76
2022/11/04 11:55:18;;;;;;;10.93;7.27;;;;;;;12.56;64.33;100561.85;1701846;84;21456;-76
2022/11/04 11:58:09;;;;;;;10.03;7.03;;;;;;;12.56;64.33;100561.85;1703338;82;21452;-77
2022/11/04 12:00:39;;;;;;;13.57;7.23;;;;;;;12.55;64.34;100565.61;1705035;84;21252;-77
2022/11/04 12:03:16;;;;;;;8.83;6.07;;;;;;;12.65;64.30;100556.76;1698525;83;21311;-76
2022/11/04 12:06:00;;;;;;;21.53;8.17;;;;;;;12.65;64.30;100556.76;1701119;84;21459;-76
2022/11/04 12:08:47;;;;;;;8.27;6.33;;;;;;;12.70;64.60;100559.45;1704616;84;21316;-76
2022/11/04 12:11:24;;;;;;;17.97;7.70;;;;;;;12.69;64.05;100565.86;1703819;82;21269;-77
2022/11/04 12:14:16;;;;;;;44.40;10.43;;;;;;;12.64;64.05;100558.64;1704738;83;21429;-76